Time;durP1;ratioP1;P1;durP2;ratioP2;P2;SDS_P1;SDS_P2;PMS_P1;PMS_P2;Temp;Humidity;BMP_temperature;BMP_pressure;BME280_temperature;BME280_humidity;BME280_pressure;Samples;Min_cycle;Max_cycle;Signal;HPM_P1;HPM_P2
2021/06/26 00:00:17;;;;;;;;;;;28.80;91.60;;;;;;5104659;28;19927;-49
2021/06/26 00:02:43;;;;;;;;;;;28.80;91.60;;;;;;5104705;28;19924;-50
2021/06/26 00:05:10;;;;;;;;;;;28.80;91.70;;;;;;5104082;28;19910;-48
2021/06/26 00:07:43;;;;;;;;;;;28.80;91.70;;;;;;5104767;28;19950;-47
2021/06/26 00:10:09;;;;;;;;;;;28.80;91.90;;;;;;5103643;28;19971;-47
2021/06/26 00:12:35;;;;;;;;;;;28.70;91.90;;;;;;5104580;28;20127;-49
2021/06/26 00:15:02;;;;;;;;;;;28.70;92.00;;;;;;5104502;28;19900;-54
2021/06/26 00:17:28;;;;;;;;;;;28.70;91.90;;;;;;5104663;28;19919;-45
2021/06/26 00:19:55;;;;;;;;;;;28.70;91.90;;;;;;5104255;28;19911;-50
2021/06/26 00:22:21;;;;;;;;;;;28.70;91.90;;;;;;5103448;28;19912;-49
2021/06/26 00:24:47;;;;;;;;;;;28.70;92.00;;;;;;5104334;28;19911;-50
2021/06/26 00:27:13;;;;;;;;;;;28.70;92.00;;;;;;5103467;28;20099;-53
2021/06/26 00:29:39;;;;;;;;;;;28.70;91.90;;;;;;5104315;28;19904;-46
2021/06/26 00:32:06;;;;;;;;;;;28.60;92.00;;;;;;5104405;28;19912;-48
2021/06/26 00:34:32;;;;;;;;;;;28.60;92.10;;;;;;5104345;28;19909;-45
2021/06/26 00:37:00;;;;;;;;;;;28.60;92.20;;;;;;5103964;28;20212;-47
2021/06/26 00:39:29;;;;;;;;;;;28.60;92.20;;;;;;5103320;28;20482;-51
2021/06/26 00:41:55;;;;;;;;;;;28.60;92.30;;;;;;5104243;28;19915;-46
2021/06/26 00:44:26;;;;;;;;;;;28.60;92.30;;;;;;5103989;28;19912;-51
2021/06/26 00:46:52;;;;;;;;;;;28.60;92.30;;;;;;5104242;28;19911;-45
2021/06/26 00:49:18;;;;;;;;;;;28.60;92.20;;;;;;5104271;28;20139;-48
2021/06/26 00:51:44;;;;;;;;;;;28.60;92.30;;;;;;5102863;28;19920;-45
2021/06/26 00:54:11;;;;;;;;;;;28.60;92.40;;;;;;5104160;28;19985;-50
2021/06/26 00:56:38;;;;;;;;;;;28.60;92.50;;;;;;5104143;28;20131;-45
2021/06/26 00:59:05;;;;;;;;;;;28.50;92.50;;;;;;5104003;28;19931;-50
2021/06/26 01:01:31;;;;;;;;;;;28.50;92.60;;;;;;5103968;28;19904;-45
2021/06/26 01:03:57;;;;;;;;;;;28.50;92.50;;;;;;5104035;28;19973;-52
2021/06/26 01:06:23;;;;;;;;;;;28.50;92.30;;;;;;5103837;28;19911;-47
2021/06/26 01:08:49;;;;;;;;;;;28.50;92.40;;;;;;5104206;28;20204;-46
2021/06/26 01:11:16;;;;;;;;;;;28.50;92.30;;;;;;5102714;28;19909;-51
2021/06/26 01:13:42;;;;;;;;;;;28.50;92.30;;;;;;5104130;28;20096;-52
2021/06/26 01:16:08;;;;;;;;;;;28.50;92.20;;;;;;5104935;28;19904;-49
2021/06/26 01:18:34;;;;;;;;;;;28.50;92.20;;;;;;5108170;28;19919;-54
2021/06/26 01:21:01;;;;;;;;;;;28.50;92.30;;;;;;5107580;28;19908;-43
2021/06/26 01:23:27;;;;;;;;;;;28.40;92.20;;;;;;5107975;28;19969;-54
2021/06/26 01:25:53;;;;;;;;;;;28.40;92.20;;;;;;5107523;28;19936;-45
2021/06/26 01:28:19;;;;;;;;;;;28.40;92.20;;;;;;5107765;28;19978;-51
2021/06/26 01:30:46;;;;;;;;;;;28.40;92.20;;;;;;5107406;28;19980;-45
2021/06/26 01:33:13;;;;;;;;;;;28.40;92.20;;;;;;5107203;28;20160;-46
2021/06/26 01:35:39;;;;;;;;;;;28.40;92.20;;;;;;5101030;28;19916;-46
2021/06/26 01:38:06;;;;;;;;;;;28.30;92.20;;;;;;5107363;28;19936;-45
2021/06/26 01:40:32;;;;;;;;;;;28.30;92.20;;;;;;5107034;28;20271;-48
2021/06/26 01:42:58;;;;;;;;;;;28.30;92.30;;;;;;5107001;28;19987;-50
2021/06/26 01:45:25;;;;;;;;;;;28.30;92.30;;;;;;5106526;28;20195;-47
2021/06/26 01:47:52;;;;;;;;;;;28.20;92.40;;;;;;5106963;28;19919;-48
2021/06/26 01:50:20;;;;;;;;;;;28.20;92.40;;;;;;5106563;28;19904;-45
2021/06/26 01:52:47;;;;;;;;;;;28.20;92.40;;;;;;5106704;28;19912;-49
2021/06/26 01:55:15;;;;;;;;;;;28.20;92.50;;;;;;5107010;28;20196;-47
2021/06/26 01:57:42;;;;;;;;;;;28.20;92.50;;;;;;5107138;28;19912;-55
2021/06/26 02:00:08;;;;;;;;;;;28.20;92.50;;;;;;5106638;28;19942;-45
2021/06/26 02:02:35;;;;;;;;;;;28.20;92.50;;;;;;5106933;28;19916;-53
2021/06/26 02:05:06;;;;;;;;;;;28.20;92.50;;;;;;5106866;28;20134;-49
2021/06/26 02:07:32;;;;;;;;;;;28.20;92.50;;;;;;5106826;28;19915;-48
2021/06/26 02:09:59;;;;;;;;;;;28.20;92.50;;;;;;5106609;28;19904;-47
2021/06/26 02:12:25;;;;;;;;;;;28.20;92.50;;;;;;5106092;28;20191;-46
2021/06/26 02:14:53;;;;;;;;;;;28.20;92.50;;;;;;5105301;28;19939;-51
2021/06/26 02:17:20;;;;;;;;;;;28.20;92.50;;;;;;5106028;28;19978;-47
2021/06/26 02:19:47;;;;;;;;;;;28.20;92.50;;;;;;5106390;28;19974;-46
2021/06/26 02:22:14;;;;;;;;;;;28.20;92.60;;;;;;5105990;28;19965;-48
2021/06/26 02:24:40;;;;;;;;;;;28.10;92.50;;;;;;5106301;28;19911;-53
2021/06/26 02:27:07;;;;;;;;;;;28.10;92.80;;;;;;5106214;28;19912;-46
2021/06/26 02:29:33;;;;;;;;;;;28.10;92.50;;;;;;5106188;28;19904;-46
2021/06/26 02:31:59;;;;;;;;;;;28.10;92.60;;;;;;5106379;28;20020;-50
2021/06/26 02:34:25;;;;;;;;;;;28.10;92.60;;;;;;5106188;28;19904;-53
2021/06/26 02:36:52;;;;;;;;;;;28.10;92.60;;;;;;5106090;28;19920;-46
2021/06/26 02:39:19;;;;;;;;;;;28.00;92.50;;;;;;5106006;28;19916;-48
2021/06/26 02:41:45;;;;;;;;;;;28.00;92.60;;;;;;5105861;28;19912;-44
2021/06/26 02:44:12;;;;;;;;;;;27.90;92.60;;;;;;5105360;28;19932;-50
2021/06/26 02:46:38;;;;;;;;;;;27.90;92.60;;;;;;5105850;28;19971;-45
2021/06/26 02:49:04;;;;;;;;;;;27.90;92.50;;;;;;5105916;28;19904;-43
2021/06/26 02:51:30;;;;;;;;;;;27.90;92.60;;;;;;5105741;28;19912;-60
2021/06/26 02:53:57;;;;;;;;;;;27.90;92.80;;;;;;5105888;28;19904;-49
2021/06/26 02:56:23;;;;;;;;;;;27.90;92.70;;;;;;5105792;28;19904;-57
2021/06/26 02:58:49;;;;;;;;;;;27.90;92.70;;;;;;5106053;28;19918;-51
2021/06/26 03:01:15;;;;;;;;;;;27.90;92.80;;;;;;5105630;28;20193;-47
2021/06/26 03:03:42;;;;;;;;;;;27.90;92.80;;;;;;5106042;28;19923;-47
2021/06/26 03:06:09;;;;;;;;;;;27.80;92.80;;;;;;5105595;28;19904;-53
2021/06/26 03:08:35;;;;;;;;;;;27.80;92.80;;;;;;5104664;28;19920;-50
2021/06/26 03:11:01;;;;;;;;;;;27.80;92.70;;;;;;5105438;28;19915;-49
2021/06/26 03:13:28;;;;;;;;;;;27.80;92.70;;;;;;5104812;28;19911;-62
2021/06/26 03:15:54;;;;;;;;;;;27.80;92.70;;;;;;5099464;28;19967;-49
2021/06/26 03:18:20;;;;;;;;;;;27.80;92.70;;;;;;5105807;28;20080;-51
2021/06/26 03:20:46;;;;;;;;;;;27.80;92.70;;;;;;5105070;28;20104;-50
2021/06/26 03:23:12;;;;;;;;;;;27.70;92.60;;;;;;5105386;28;20185;-45
2021/06/26 03:25:39;;;;;;;;;;;27.70;92.50;;;;;;5103580;28;19953;-50
2021/06/26 03:28:05;;;;;;;;;;;27.70;92.50;;;;;;5103831;28;19975;-47
2021/06/26 03:30:31;;;;;;;;;;;27.70;92.50;;;;;;5103316;28;19908;-51
2021/06/26 03:32:57;;;;;;;;;;;27.70;92.60;;;;;;5103379;28;19908;-53
2021/06/26 03:35:24;;;;;;;;;;;27.70;92.50;;;;;;5103318;28;20039;-46
2021/06/26 03:37:50;;;;;;;;;;;27.70;92.50;;;;;;5102709;28;19957;-51
2021/06/26 03:40:16;;;;;;;;;;;27.70;92.50;;;;;;5104300;28;19946;-47
2021/06/26 03:42:42;;;;;;;;;;;27.70;92.60;;;;;;5104696;28;19916;-49
2021/06/26 03:45:09;;;;;;;;;;;27.70;92.60;;;;;;5104693;28;19904;-52
2021/06/26 03:47:35;;;;;;;;;;;27.60;92.60;;;;;;5104276;28;19912;-47
2021/06/26 03:50:02;;;;;;;;;;;27.60;92.60;;;;;;5104335;28;20192;-52
2021/06/26 03:52:29;;;;;;;;;;;27.70;92.60;;;;;;5104150;28;19983;-52
2021/06/26 03:54:55;;;;;;;;;;;27.70;92.50;;;;;;5104836;28;19912;-45
2021/06/26 03:57:21;;;;;;;;;;;27.70;92.40;;;;;;5104494;28;19940;-47
2021/06/26 03:59:47;;;;;;;;;;;27.70;92.40;;;;;;5104685;28;20009;-54
2021/06/26 04:02:13;;;;;;;;;;;27.70;92.20;;;;;;5104682;28;20192;-46
2021/06/26 04:04:40;;;;;;;;;;;27.70;92.30;;;;;;5104578;28;19931;-52
2021/06/26 04:07:06;;;;;;;;;;;27.70;92.40;;;;;;5104609;28;19912;-45
2021/06/26 04:09:34;;;;;;;;;;;27.70;92.40;;;;;;5104402;28;19904;-47
2021/06/26 04:12:00;;;;;;;;;;;27.70;92.40;;;;;;5104054;28;19939;-44
2021/06/26 04:14:26;;;;;;;;;;;27.70;92.30;;;;;;5104056;28;20211;-46
2021/06/26 04:16:52;;;;;;;;;;;27.80;92.30;;;;;;5104358;28;19947;-45
2021/06/26 04:19:18;;;;;;;;;;;27.80;92.50;;;;;;5104418;28;20093;-45
2021/06/26 04:21:45;;;;;;;;;;;27.80;92.30;;;;;;5104338;28;19920;-45
2021/06/26 04:24:11;;;;;;;;;;;27.80;92.30;;;;;;5104210;28;19919;-42
2021/06/26 04:26:37;;;;;;;;;;;27.80;92.30;;;;;;5103892;28;19904;-52
2021/06/26 04:29:03;;;;;;;;;;;27.80;92.30;;;;;;5104282;28;19950;-50
2021/06/26 04:31:29;;;;;;;;;;;27.80;92.30;;;;;;5104109;28;19904;-48
2021/06/26 04:33:56;;;;;;;;;;;27.80;92.30;;;;;;5103048;28;19908;-43
2021/06/26 04:36:22;;;;;;;;;;;27.80;92.30;;;;;;5103065;28;19979;-44
2021/06/26 04:38:48;;;;;;;;;;;27.80;92.30;;;;;;5103509;28;19958;-52
2021/06/26 04:41:14;;;;;;;;;;;27.80;92.30;;;;;;5104005;28;19953;-43
2021/06/26 04:43:41;;;;;;;;;;;27.80;92.30;;;;;;5104595;28;19916;-43
2021/06/26 04:46:10;;;;;;;;;;;27.80;92.30;;;;;;5104308;28;20245;-43
2021/06/26 04:48:37;;;;;;;;;;;27.80;92.30;;;;;;5104644;28;19927;-44
2021/06/26 04:51:03;;;;;;;;;;;27.80;92.30;;;;;;5107163;28;20096;-45
2021/06/26 04:53:30;;;;;;;;;;;27.80;92.50;;;;;;5108693;28;19912;-47
2021/06/26 04:55:56;;;;;;;;;;;27.80;92.30;;;;;;5107206;28;19904;-45
2021/06/26 04:58:23;;;;;;;;;;;27.80;92.30;;;;;;5108566;28;19935;-48
2021/06/26 05:00:53;;;;;;;;;;;27.80;92.30;;;;;;5108098;28;20208;-44
2021/06/26 05:03:19;;;;;;;;;;;27.80;92.30;;;;;;5108368;28;19924;-45
2021/06/26 05:05:46;;;;;;;;;;;27.80;92.30;;;;;;5107981;28;19975;-48
2021/06/26 05:08:12;;;;;;;;;;;27.80;92.30;;;;;;5108382;28;19912;-53
2021/06/26 05:10:38;;;;;;;;;;;27.80;92.30;;;;;;5107392;28;19904;-49
2021/06/26 05:13:05;;;;;;;;;;;27.70;92.40;;;;;;5108198;28;19912;-49
2021/06/26 05:15:31;;;;;;;;;;;27.70;92.40;;;;;;5106594;28;19904;-47
2021/06/26 05:17:58;;;;;;;;;;;27.70;92.40;;;;;;5107915;28;19919;-53
2021/06/26 05:20:24;;;;;;;;;;;27.70;92.40;;;;;;5107106;28;19912;-48
2021/06/26 05:22:50;;;;;;;;;;;27.70;92.40;;;;;;5107417;28;19950;-43
2021/06/26 05:25:16;;;;;;;;;;;27.70;92.50;;;;;;5106941;28;19908;-48
2021/06/26 05:27:43;;;;;;;;;;;27.70;92.50;;;;;;5107685;28;20204;-50
2021/06/26 05:30:10;;;;;;;;;;;27.70;92.50;;;;;;5107766;28;19911;-47
2021/06/26 05:32:36;;;;;;;;;;;27.70;92.50;;;;;;5107338;28;20049;-44
2021/06/26 05:35:02;;;;;;;;;;;27.60;92.50;;;;;;5107595;28;19927;-45
2021/06/26 05:37:29;;;;;;;;;;;27.60;92.50;;;;;;5106273;28;19934;-44
2021/06/26 05:39:55;;;;;;;;;;;27.60;92.60;;;;;;5105616;28;19964;-43
2021/06/26 05:42:21;;;;;;;;;;;27.50;92.60;;;;;;5105817;28;19920;-45
2021/06/26 05:44:47;;;;;;;;;;;27.50;92.70;;;;;;5105782;28;20051;-49
2021/06/26 05:47:13;;;;;;;;;;;27.50;92.80;;;;;;5105850;28;19950;-45
2021/06/26 05:49:40;;;;;;;;;;;27.40;92.80;;;;;;5105760;28;19911;-48
2021/06/26 05:52:06;;;;;;;;;;;27.40;92.80;;;;;;5105977;28;19912;-47
2021/06/26 05:54:32;;;;;;;;;;;27.40;92.80;;;;;;5107115;28;19911;-45
2021/06/26 05:56:59;;;;;;;;;;;27.40;92.80;;;;;;5106986;28;19912;-48
2021/06/26 05:59:25;;;;;;;;;;;27.40;92.70;;;;;;5106856;28;19927;-44
2021/06/26 06:01:51;;;;;;;;;;;27.30;92.70;;;;;;5106357;28;19918;-50
2021/06/26 06:04:18;;;;;;;;;;;27.30;92.80;;;;;;5106727;28;19908;-45
2021/06/26 06:06:44;;;;;;;;;;;27.30;92.80;;;;;;5106639;28;19904;-44
2021/06/26 06:09:10;;;;;;;;;;;27.30;92.80;;;;;;5106849;28;19908;-45
2021/06/26 06:11:36;;;;;;;;;;;27.30;92.70;;;;;;5106661;28;19904;-47
2021/06/26 06:14:03;;;;;;;;;;;27.20;92.70;;;;;;5106635;28;19904;-47
2021/06/26 06:16:29;;;;;;;;;;;27.20;92.70;;;;;;5106677;28;19904;-49
2021/06/26 06:18:55;;;;;;;;;;;27.20;92.70;;;;;;5106533;28;19945;-48
2021/06/26 06:21:21;;;;;;;;;;;27.20;92.70;;;;;;5106620;28;19961;-48
2021/06/26 06:23:47;;;;;;;;;;;27.20;92.70;;;;;;5106363;28;20163;-45
2021/06/26 06:26:14;;;;;;;;;;;27.20;92.70;;;;;;5106373;28;19911;-44
2021/06/26 06:28:40;;;;;;;;;;;27.20;92.60;;;;;;5106899;28;19912;-44
2021/06/26 06:31:06;;;;;;;;;;;27.10;92.60;;;;;;5106479;28;19985;-43
2021/06/26 06:33:32;;;;;;;;;;;27.10;92.50;;;;;;5106735;28;19912;-50
2021/06/26 06:36:00;;;;;;;;;;;27.10;92.40;;;;;;5106429;28;19911;-57
2021/06/26 06:38:26;;;;;;;;;;;27.10;92.40;;;;;;5106172;28;20231;-45
2021/06/26 06:40:53;;;;;;;;;;;27.10;92.30;;;;;;5106202;28;19910;-53
2021/06/26 06:43:19;;;;;;;;;;;27.10;92.30;;;;;;5106446;28;19930;-45
2021/06/26 06:45:45;;;;;;;;;;;27.00;92.30;;;;;;5106134;28;20127;-53
2021/06/26 06:48:11;;;;;;;;;;;27.00;92.30;;;;;;5106549;28;19947;-42
2021/06/26 06:50:37;;;;;;;;;;;27.00;92.30;;;;;;5105816;28;20099;-47
2021/06/26 06:53:04;;;;;;;;;;;27.00;92.30;;;;;;5105964;28;19912;-44
2021/06/26 06:55:30;;;;;;;;;;;27.00;92.40;;;;;;5105988;28;19904;-44
2021/06/26 06:57:56;;;;;;;;;;;26.90;92.30;;;;;;5104739;28;20200;-54
2021/06/26 07:00:22;;;;;;;;;;;26.90;92.40;;;;;;5105831;28;19932;-50
2021/06/26 07:02:49;;;;;;;;;;;26.90;92.40;;;;;;5105956;28;19983;-47
2021/06/26 07:05:15;;;;;;;;;;;26.90;92.40;;;;;;5105607;28;19904;-47
2021/06/26 07:07:41;;;;;;;;;;;26.90;92.40;;;;;;5105616;28;19912;-45
2021/06/26 07:10:08;;;;;;;;;;;26.90;92.40;;;;;;5105758;28;19945;-45
2021/06/26 07:12:34;;;;;;;;;;;26.90;92.40;;;;;;5105350;28;20110;-52
2021/06/26 07:15:00;;;;;;;;;;;26.90;92.50;;;;;;5104649;28;19975;-46
2021/06/26 07:17:26;;;;;;;;;;;26.80;92.60;;;;;;5105622;28;19981;-45
2021/06/26 07:19:52;;;;;;;;;;;26.80;92.60;;;;;;5105306;28;19904;-47
2021/06/26 07:22:19;;;;;;;;;;;26.80;92.60;;;;;;5105497;28;20203;-57
2021/06/26 07:24:45;;;;;;;;;;;26.80;92.60;;;;;;5105279;28;20163;-50
2021/06/26 07:27:11;;;;;;;;;;;26.80;92.60;;;;;;5105328;28;19975;-45
2021/06/26 07:29:37;;;;;;;;;;;26.80;92.60;;;;;;5105231;28;19916;-46
2021/06/26 07:32:04;;;;;;;;;;;26.80;92.60;;;;;;5105451;28;19912;-41
2021/06/26 07:34:30;;;;;;;;;;;26.80;92.60;;;;;;5105120;28;19911;-46
2021/06/26 07:36:56;;;;;;;;;;;26.70;92.70;;;;;;5105098;28;20142;-43
2021/06/26 07:39:22;;;;;;;;;;;26.70;92.60;;;;;;5104981;28;19923;-51
2021/06/26 07:41:48;;;;;;;;;;;26.80;92.60;;;;;;5105047;28;19919;-51
2021/06/26 07:44:17;;;;;;;;;;;26.70;92.60;;;;;;5104818;28;19908;-43
2021/06/26 07:46:43;;;;;;;;;;;26.70;92.70;;;;;;5104802;28;19912;-47
2021/06/26 07:49:10;;;;;;;;;;;26.70;92.70;;;;;;5104879;28;19904;-56
2021/06/26 07:51:36;;;;;;;;;;;26.70;92.70;;;;;;5104681;28;20200;-52
2021/06/26 07:54:02;;;;;;;;;;;26.60;92.60;;;;;;5104923;28;19904;-45
2021/06/26 07:56:30;;;;;;;;;;;26.60;92.70;;;;;;5104717;28;20140;-53
2021/06/26 07:58:57;;;;;;;;;;;26.60;92.70;;;;;;5104573;28;20065;-47
2021/06/26 08:01:23;;;;;;;;;;;26.60;92.70;;;;;;5104815;28;19904;-43
2021/06/26 08:03:49;;;;;;;;;;;26.60;92.70;;;;;;5105134;28;19923;-47
2021/06/26 08:06:15;;;;;;;;;;;26.60;92.70;;;;;;5104634;28;19904;-45
2021/06/26 08:08:41;;;;;;;;;;;26.60;92.70;;;;;;5103650;28;19935;-45
2021/06/26 08:11:08;;;;;;;;;;;26.50;92.50;;;;;;5104713;28;19911;-44
2021/06/26 08:13:34;;;;;;;;;;;26.60;92.60;;;;;;5104934;28;19912;-49
2021/06/26 08:16:00;;;;;;;;;;;26.60;92.60;;;;;;5104556;28;19908;-50
2021/06/26 08:18:26;;;;;;;;;;;26.50;92.50;;;;;;5103546;28;19912;-47
2021/06/26 08:20:52;;;;;;;;;;;26.50;92.50;;;;;;5104364;28;19911;-49
2021/06/26 08:23:19;;;;;;;;;;;26.50;92.40;;;;;;5104884;28;19931;-44
2021/06/26 08:25:45;;;;;;;;;;;26.50;92.40;;;;;;5104202;28;19942;-43
2021/06/26 08:28:11;;;;;;;;;;;26.50;92.40;;;;;;5104895;28;20096;-56
2021/06/26 08:30:37;;;;;;;;;;;26.50;92.30;;;;;;5104290;28;19904;-51
2021/06/26 08:33:04;;;;;;;;;;;26.50;92.30;;;;;;5104720;28;20196;-47
2021/06/26 08:35:30;;;;;;;;;;;26.40;92.30;;;;;;5104432;28;19912;-51
2021/06/26 08:37:56;;;;;;;;;;;26.40;92.40;;;;;;5104243;28;19964;-51
2021/06/26 08:40:23;;;;;;;;;;;26.40;92.30;;;;;;5104433;28;20193;-46
2021/06/26 08:42:50;;;;;;;;;;;26.40;92.30;;;;;;5104475;28;19987;-51
2021/06/26 08:45:18;;;;;;;;;;;26.40;92.40;;;;;;5104152;28;19911;-47
2021/06/26 08:47:52;;;;;;;;;;;26.40;92.30;;;;;;5104537;28;19916;-47
2021/06/26 08:50:19;;;;;;;;;;;26.30;92.30;;;;;;5104250;28;20131;-44
2021/06/26 08:52:45;;;;;;;;;;;26.30;92.30;;;;;;5104160;28;19916;-45
2021/06/26 08:55:12;;;;;;;;;;;26.30;92.30;;;;;;5103016;28;19904;-45
2021/06/26 08:57:40;;;;;;;;;;;26.30;92.30;;;;;;5104530;28;19919;-55
2021/06/26 09:00:08;;;;;;;;;;;26.30;92.60;;;;;;5103929;28;19904;-45
2021/06/26 09:02:35;;;;;;;;;;;26.30;92.30;;;;;;5104330;28;19919;-43
2021/06/26 09:05:03;;;;;;;;;;;26.30;92.30;;;;;;5104172;28;19984;-43
2021/06/26 09:07:33;;;;;;;;;;;26.30;92.30;;;;;;5104129;28;19919;-46
2021/06/26 09:10:13;;;;;;;;;;;26.20;92.30;;;;;;5104248;28;19927;-49
2021/06/26 09:12:39;;;;;;;;;;;26.20;92.30;;;;;;5104117;28;20189;-52
2021/06/26 09:15:07;;;;;;;;;;;26.20;92.30;;;;;;5104005;28;19900;-44
2021/06/26 09:17:34;;;;;;;;;;;26.20;92.30;;;;;;5104254;28;20189;-45
2021/06/26 09:20:04;;;;;;;;;;;26.20;92.30;;;;;;5103791;28;19904;-43
2021/06/26 09:22:43;;;;;;;;;;;26.20;92.30;;;;;;5104074;28;20082;-45
2021/06/26 09:25:22;;;;;;;;;;;26.20;92.30;;;;;;5103753;28;19904;-46
2021/06/26 09:27:48;;;;;;;;;;;26.10;92.30;;;;;;5104131;28;19912;-50
2021/06/26 09:30:14;;;;;;;;;;;26.10;92.30;;;;;;5103869;28;20247;-46
2021/06/26 09:32:43;;;;;;;;;;;26.10;92.30;;;;;;5103936;28;19912;-47
2021/06/26 09:35:14;;;;;;;;;;;26.20;92.30;;;;;;5103934;28;19904;-48
2021/06/26 09:37:40;;;;;;;;;;;26.20;92.30;;;;;;5105526;28;20121;-49
2021/06/26 09:40:07;;;;;;;;;;;26.20;92.20;;;;;;5107299;28;19904;-46
2021/06/26 09:42:38;;;;;;;;;;;26.10;92.20;;;;;;5107488;28;19936;-43
2021/06/26 09:45:05;;;;;;;;;;;26.20;92.20;;;;;;5107226;28;19904;-46
2021/06/26 09:47:45;;;;;;;;;;;26.10;92.30;;;;;;5107464;28;19924;-49
2021/06/26 09:50:15;;;;;;;;;;;26.10;92.30;;;;;;5107256;28;20192;-44
2021/06/26 09:52:44;;;;;;;;;;;26.10;92.30;;;;;;5107301;28;19912;-51
2021/06/26 09:55:14;;;;;;;;;;;26.10;92.30;;;;;;5107160;28;20100;-54
2021/06/26 09:57:40;;;;;;;;;;;26.10;92.30;;;;;;5107299;28;19919;-55
2021/06/26 10:00:07;;;;;;;;;;;26.10;92.30;;;;;;5107241;28;19939;-49
2021/06/26 10:02:34;;;;;;;;;;;26.10;92.30;;;;;;5107023;28;19983;-47
2021/06/26 10:05:02;;;;;;;;;;;26.10;92.40;;;;;;5107021;28;19904;-51
2021/06/26 10:07:31;;;;;;;;;;;26.00;92.40;;;;;;5106968;28;19916;-49
2021/06/26 10:09:58;;;;;;;;;;;26.00;92.40;;;;;;5106960;28;19904;-46
2021/06/26 10:12:25;;;;;;;;;;;26.00;92.50;;;;;;5107015;28;19912;-52
2021/06/26 10:14:53;;;;;;;;;;;26.00;92.50;;;;;;5106636;28;19973;-52
2021/06/26 10:17:20;;;;;;;;;;;26.00;92.50;;;;;;5106857;28;19944;-43
2021/06/26 10:19:46;;;;;;;;;;;26.00;92.40;;;;;;5106582;28;19904;-49
2021/06/26 10:22:12;;;;;;;;;;;26.00;92.40;;;;;;5106886;28;19988;-48
2021/06/26 10:24:41;;;;;;;;;;;26.00;92.50;;;;;;5106474;28;19908;-44
2021/06/26 10:27:15;;;;;;;;;;;26.00;92.50;;;;;;5106650;28;20176;-46
2021/06/26 10:29:41;;;;;;;;;;;26.00;92.50;;;;;;5106414;28;19911;-44
2021/06/26 10:32:11;;;;;;;;;;;26.00;92.60;;;;;;5106447;28;20044;-44
2021/06/26 10:34:45;;;;;;;;;;;25.90;92.50;;;;;;5106286;28;19904;-45
2021/06/26 10:37:24;;;;;;;;;;;26.00;92.50;;;;;;5106321;28;19912;-57
2021/06/26 10:40:22;;;;;;;;;;;25.90;92.50;;;;;;5106115;28;19919;-60
2021/06/26 10:42:49;;;;;;;;;;;25.90;92.60;;;;;;5061465;28;20223;-46
2021/06/26 10:45:25;;;;;;;;;;;25.90;92.50;;;;;;5106044;28;19911;-44
2021/06/26 10:47:51;;;;;;;;;;;25.90;92.40;;;;;;5106243;28;19912;-46
2021/06/26 10:50:19;;;;;;;;;;;25.90;92.40;;;;;;5106013;28;19911;-45
2021/06/26 10:52:48;;;;;;;;;;;25.90;92.40;;;;;;5106274;28;19924;-46
2021/06/26 10:55:34;;;;;;;;;;;25.90;92.30;;;;;;5105904;28;20104;-49
2021/06/26 10:58:02;;;;;;;;;;;25.90;92.30;;;;;;5106029;28;19961;-44
2021/06/26 11:00:33;;;;;;;;;;;25.90;92.30;;;;;;5105896;28;19934;-51
2021/06/26 11:03:00;;;;;;;;;;;25.90;92.30;;;;;;5105958;28;20219;-52
2021/06/26 11:05:27;;;;;;;;;;;25.90;92.30;;;;;;5105867;28;20208;-43
2021/06/26 11:07:53;;;;;;;;;;;25.90;92.30;;;;;;5106007;28;19912;-42
2021/06/26 11:10:20;;;;;;;;;;;25.90;92.30;;;;;;5105478;28;19911;-52
2021/06/26 11:12:48;;;;;;;;;;;25.90;92.20;;;;;;5105792;28;19924;-52
2021/06/26 11:15:16;;;;;;;;;;;25.90;92.20;;;;;;5105479;28;19900;-44
2021/06/26 11:17:44;;;;;;;;;;;25.90;92.10;;;;;;5105670;28;19936;-50
2021/06/26 11:20:12;;;;;;;;;;;25.90;92.20;;;;;;5105456;28;20223;-46
2021/06/26 11:22:38;;;;;;;;;;;25.90;92.10;;;;;;5105293;28;19916;-50
2021/06/26 11:25:08;;;;;;;;;;;25.90;92.20;;;;;;5105265;28;20250;-45
2021/06/26 11:27:34;;;;;;;;;;;25.90;92.30;;;;;;5105525;28;20197;-51
2021/06/26 11:30:05;;;;;;;;;;;25.90;92.40;;;;;;5105260;28;19908;-51
2021/06/26 11:32:32;;;;;;;;;;;25.90;92.40;;;;;;5105326;28;19908;-50
2021/06/26 11:34:59;;;;;;;;;;;26.00;92.40;;;;;;5105170;28;20157;-46
2021/06/26 11:37:33;;;;;;;;;;;26.00;92.40;;;;;;5105219;28;19936;-49
2021/06/26 11:39:59;;;;;;;;;;;26.00;92.40;;;;;;5105031;28;20247;-46
2021/06/26 11:42:26;;;;;;;;;;;25.90;92.30;;;;;;5105382;28;19980;-51
2021/06/26 11:44:53;;;;;;;;;;;26.00;92.50;;;;;;5105127;28;20103;-44
2021/06/26 11:47:23;;;;;;;;;;;26.00;92.60;;;;;;5105029;28;19919;-44
2021/06/26 11:49:49;;;;;;;;;;;26.00;92.60;;;;;;5103858;28;19939;-47
2021/06/26 11:52:16;;;;;;;;;;;26.00;92.60;;;;;;5105114;28;19918;-48
2021/06/26 11:54:43;;;;;;;;;;;26.00;92.90;;;;;;5104738;28;19904;-43
2021/06/26 11:57:12;;;;;;;;;;;26.00;92.70;;;;;;5105090;28;20177;-51
2021/06/26 11:59:42;;;;;;;;;;;26.00;92.70;;;;;;5104315;28;19908;-50
2021/06/26 12:02:10;;;;;;;;;;;26.00;92.80;;;;;;5104673;28;19915;-44
2021/06/26 12:04:38;;;;;;;;;;;26.00;92.80;;;;;;5104648;28;19908;-49
2021/06/26 12:07:05;;;;;;;;;;;26.00;92.80;;;;;;5104710;28;19916;-46
2021/06/26 12:09:31;;;;;;;;;;;26.00;92.70;;;;;;5104525;28;19905;-45
2021/06/26 12:11:58;;;;;;;;;;;26.00;92.60;;;;;;5104834;28;20200;-42
2021/06/26 12:14:26;;;;;;;;;;;26.10;92.50;;;;;;5104583;28;20134;-42
2021/06/26 12:16:52;;;;;;;;;;;26.10;92.50;;;;;;5104395;28;19918;-48
2021/06/26 12:19:28;;;;;;;;;;;26.10;92.50;;;;;;5104538;28;19904;-44
2021/06/26 12:21:54;;;;;;;;;;;26.10;92.50;;;;;;5104403;28;19979;-48
2021/06/26 12:24:40;;;;;;;;;;;26.10;92.50;;;;;;5104434;28;20216;-53
2021/06/26 12:27:06;;;;;;;;;;;26.10;92.50;;;;;;5104553;28;19915;-50
2021/06/26 12:29:33;;;;;;;;;;;26.20;92.50;;;;;;5104174;28;19908;-50
2021/06/26 12:32:00;;;;;;;;;;;26.20;92.40;;;;;;5104405;28;20112;-49
2021/06/26 12:34:26;;;;;;;;;;;26.20;92.40;;;;;;5104253;28;19912;-47
2021/06/26 12:36:56;;;;;;;;;;;26.30;92.30;;;;;;5104217;28;19975;-43
2021/06/26 12:39:22;;;;;;;;;;;26.30;92.40;;;;;;5104248;28;19916;-47
2021/06/26 12:42:09;;;;;;;;;;;26.30;92.40;;;;;;5104320;28;19958;-45
2021/06/26 12:44:39;;;;;;;;;;;26.30;92.50;;;;;;5104141;28;19945;-46
2021/06/26 12:47:06;;;;;;;;;;;26.30;92.40;;;;;;5104422;28;19962;-47
2021/06/26 12:49:39;;;;;;;;;;;26.40;92.40;;;;;;5104062;28;19916;-47
2021/06/26 12:52:12;;;;;;;;;;;26.40;92.40;;;;;;5104293;28;19950;-51
2021/06/26 12:54:48;;;;;;;;;;;26.40;92.40;;;;;;5104050;28;20249;-48
2021/06/26 12:57:14;;;;;;;;;;;26.40;92.30;;;;;;5104482;28;19975;-47
2021/06/26 12:59:41;;;;;;;;;;;26.40;92.10;;;;;;5104135;28;20191;-47
2021/06/26 13:02:09;;;;;;;;;;;26.50;91.90;;;;;;5104096;28;19908;-45
2021/06/26 13:04:38;;;;;;;;;;;26.50;92.00;;;;;;5103976;28;19912;-44
2021/06/26 13:07:05;;;;;;;;;;;26.50;92.10;;;;;;5104088;28;19915;-47
2021/06/26 13:09:31;;;;;;;;;;;26.50;92.10;;;;;;5103968;28;19979;-47
2021/06/26 13:12:07;;;;;;;;;;;26.60;92.10;;;;;;5105036;28;19914;-43
2021/06/26 13:14:38;;;;;;;;;;;26.60;92.10;;;;;;5107748;28;19908;-43
2021/06/26 13:17:05;;;;;;;;;;;26.60;92.00;;;;;;5107958;28;19915;-45
2021/06/26 13:19:31;;;;;;;;;;;26.70;92.00;;;;;;5107893;28;19908;-48
2021/06/26 13:21:57;;;;;;;;;;;26.70;92.00;;;;;;5107691;28;20189;-46
2021/06/26 13:24:23;;;;;;;;;;;26.80;91.90;;;;;;5107676;28;19912;-47
2021/06/26 13:26:50;;;;;;;;;;;26.80;91.80;;;;;;5107694;28;19914;-49
2021/06/26 13:29:16;;;;;;;;;;;26.80;91.70;;;;;;5107473;28;19915;-49
2021/06/26 13:31:42;;;;;;;;;;;26.90;91.70;;;;;;5107662;28;19912;-47
2021/06/26 13:34:09;;;;;;;;;;;26.90;91.60;;;;;;5107590;28;19935;-51
2021/06/26 13:36:35;;;;;;;;;;;26.90;91.60;;;;;;5107526;28;19983;-47
2021/06/26 13:39:02;;;;;;;;;;;27.00;91.60;;;;;;5107333;28;19920;-49
2021/06/26 13:41:29;;;;;;;;;;;27.00;91.60;;;;;;5107373;28;19904;-47
2021/06/26 13:43:55;;;;;;;;;;;27.00;91.50;;;;;;5107242;28;19985;-49
2021/06/26 13:46:21;;;;;;;;;;;27.10;91.50;;;;;;5107168;28;19904;-47
2021/06/26 13:48:47;;;;;;;;;;;27.20;91.50;;;;;;5107760;28;19949;-47
2021/06/26 13:51:14;;;;;;;;;;;27.20;91.30;;;;;;5107252;28;20252;-44
2021/06/26 13:53:40;;;;;;;;;;;27.30;91.40;;;;;;5107420;28;19961;-51
2021/06/26 13:56:06;;;;;;;;;;;27.30;91.10;;;;;;5107091;28;19946;-56
2021/06/26 13:58:32;;;;;;;;;;;27.30;91.10;;;;;;5107478;28;20132;-47
2021/06/26 14:00:59;;;;;;;;;;;27.40;91.20;;;;;;5106814;28;19911;-49
2021/06/26 14:03:25;;;;;;;;;;;27.40;90.90;;;;;;5105851;28;20107;-44
2021/06/26 14:05:51;;;;;;;;;;;27.50;90.90;;;;;;5106706;28;19904;-48
2021/06/26 14:08:17;;;;;;;;;;;27.50;91.00;;;;;;5107181;28;19919;-46
2021/06/26 14:10:44;;;;;;;;;;;27.50;91.00;;;;;;5106828;28;20188;-43
2021/06/26 14:13:10;;;;;;;;;;;27.60;90.80;;;;;;5107093;28;19913;-44
2021/06/26 14:15:36;;;;;;;;;;;27.60;90.50;;;;;;5106446;28;19931;-45